Essex, CT (06426)

7:15 PM EDT on July 30, 2015 (GMT -0400)
Sunset Pond | | Change Station
CLOSE
Current Station
Personal Weather Station
Location: Essex, CT
Elevation: 120 ft
Nearby Weather Stations

Elev 120 ft 41.36 °N, 72.40 °W | Updated 7 seconds ago

Mostly Cloudy
Mostly Cloudy
74.7 °F
Feels Like 74 °F
N
0.0
Wind Variable Wind from North
Gusts 0.0 mph

Today
High -- | Low -- °F
--% Chance of Precip.
Yesterday
High -- | Low -- °F
Precip. -- in
5:42 AM 8:09 PM
Full, 100% visible
Pressure 29.84 in
Visibility 2.5 miles
Clouds Scattered Clouds 200 ft
Mostly Cloudy 600 ft
Overcast 1100 ft
Heat Index 74 °F
Dew Point 70 °F
Humidity 85%
Rainfall 0.00 in
Snow Depth Not available.
UV 0 out of 12
Pollen 6.40 out of 12
Air Quality Not available.
Flu Activity Not available.
METAR KSNC 302255Z AUTO 21008KT 2 1/2SM RA SCT002 BKN006 OVC011 23/23 A2984 RMK AO2 P0077

More Conditions Fewer Conditions

Pressure 29.84 in
Visibility 2.5 miles
Clouds Scattered Clouds 200 ft
Mostly Cloudy 600 ft
Overcast 1100 ft
Heat Index 74 °F
Dew Point 70 °F
Humidity 85%
Rainfall 0.00 in
Snow Depth Not available.
UV 0 out of 12
Pollen 6.40 out of 12
Air Quality Not available.
Flu Activity Not available.
METAR KSNC 302255Z AUTO 21008KT 2 1/2SM RA SCT002 BKN006 OVC011 23/23 A2984 RMK AO2 P0077

More Conditions Fewer Conditions

10-Day Weather Forecast

×

Almanac

Astronomy

Jul. 30, 2015 Rise Set
Actual Time
Civil Twilight
Nautical Twilight
Astronomical Twilight
Moon
Length of Visible Light
Length of Day
Tomorrow will be .
, % of the Moon is Illuminated

Today's Extremes

State Highs State Lows

Community

WunderPhotos

Upload Photos

1,842,531 photos uploaded!

WunderBlogs® & News

Nearby

Air Quality

  Air Quality AQ Index Pollutant
Not available.

Snow Depth

Station Depth Elevation

Earthquake Activity

City Distance Mag. Time & Date
Minimum magnitude displayed is 2.5.

Coastal Water Temperatures

Place Temperature

Stations

Nearby Weather Stations

Station Location Temp. Windchill Dew Point Humidity Wind Precip. Elev Updated Type